sensor_id;sensor_type;location;lat;lon;timestamp;pressure;altitude;pressure_sealevel;temperature;humidity
63607;BME280;71992;52.478;-1.918;2024-03-02T00:01:39;97199.69;;;3.00;100.00
63607;BME280;71992;52.478;-1.918;2024-03-02T00:04:29;97197.25;;;2.97;100.00
63607;BME280;71992;52.478;-1.918;2024-03-02T00:06:58;97196.53;;;2.95;100.00
63607;BME280;71992;52.478;-1.918;2024-03-02T00:09:53;97201.59;;;2.98;100.00
63607;BME280;71992;52.478;-1.918;2024-03-02T00:12:26;97193.53;;;3.00;100.00
63607;BME280;71992;52.478;-1.918;2024-03-02T00:15:37;97195.34;;;2.99;100.00
63607;BME280;71992;52.478;-1.918;2024-03-02T00:18:34;97190.22;;;2.98;100.00
63607;BME280;71992;52.478;-1.918;2024-03-02T00:21:27;97184.06;;;2.97;100.00
63607;BME280;71992;52.478;-1.918;2024-03-02T00:24:21;97190.22;;;2.98;100.00
63607;BME280;71992;52.478;-1.918;2024-03-02T00:26:51;97189.34;;;2.97;100.00
63607;BME280;71992;52.478;-1.918;2024-03-02T00:29:20;97186.34;;;3.02;100.00
63607;BME280;71992;52.478;-1.918;2024-03-02T00:31:50;97186.25;;;3.03;100.00
63607;BME280;71992;52.478;-1.918;2024-03-02T00:34:24;97190.78;;;3.01;100.00
63607;BME280;71992;52.478;-1.918;2024-03-02T00:36:57;97191.53;;;3.03;100.00
63607;BME280;71992;52.478;-1.918;2024-03-02T00:39:49;97191.06;;;3.09;100.00
63607;BME280;71992;52.478;-1.918;2024-03-02T00:42:39;97185.53;;;3.12;100.00
63607;BME280;71992;52.478;-1.918;2024-03-02T00:45:28;97191.53;;;3.14;100.00
63607;BME280;71992;52.478;-1.918;2024-03-02T00:48:20;97188.63;;;3.06;100.00
63607;BME280;71992;52.478;-1.918;2024-03-02T00:51:12;97186.72;;;3.08;100.00
63607;BME280;71992;52.478;-1.918;2024-03-02T00:54:07;97186.88;;;3.07;100.00
63607;BME280;71992;52.478;-1.918;2024-03-02T00:56:58;97181.81;;;3.04;100.00
63607;BME280;71992;52.478;-1.918;2024-03-02T00:59:49;97176.53;;;3.04;100.00
63607;BME280;71992;52.478;-1.918;2024-03-02T01:02:38;97180.50;;;3.09;100.00
63607;BME280;71992;52.478;-1.918;2024-03-02T01:05:32;97179.44;;;3.12;100.00
63607;BME280;71992;52.478;-1.918;2024-03-02T01:08:24;97180.28;;;3.12;100.00
63607;BME280;71992;52.478;-1.918;2024-03-02T01:11:16;97176.44;;;3.17;100.00
63607;BME280;71992;52.478;-1.918;2024-03-02T01:14:08;97180.28;;;3.12;100.00
63607;BME280;71992;52.478;-1.918;2024-03-02T01:17:00;97173.53;;;3.08;100.00
63607;BME280;71992;52.478;-1.918;2024-03-02T01:19:30;97171.78;;;3.09;100.00
63607;BME280;71992;52.478;-1.918;2024-03-02T01:22:20;97177.75;;;3.11;100.00
63607;BME280;71992;52.478;-1.918;2024-03-02T01:25:14;97182.19;;;3.10;100.00
63607;BME280;71992;52.478;-1.918;2024-03-02T01:27:43;97170.19;;;3.06;100.00
63607;BME280;71992;52.478;-1.918;2024-03-02T01:30:33;97175.25;;;3.09;100.00
63607;BME280;71992;52.478;-1.918;2024-03-02T01:33:04;97172.69;;;2.97;100.00
63607;BME280;71992;52.478;-1.918;2024-03-02T01:35:54;97168.84;;;2.89;100.00
63607;BME280;71992;52.478;-1.918;2024-03-02T01:38:46;97167.75;;;2.81;100.00
63607;BME280;71992;52.478;-1.918;2024-03-02T01:41:42;97164.41;;;2.90;100.00
63607;BME280;71992;52.478;-1.918;2024-03-02T01:44:13;97163.81;;;2.86;100.00
63607;BME280;71992;52.478;-1.918;2024-03-02T01:47:03;97156.25;;;2.82;100.00
63607;BME280;71992;52.478;-1.918;2024-03-02T01:49:33;97154.56;;;2.81;100.00
63607;BME280;71992;52.478;-1.918;2024-03-02T01:52:05;97163.28;;;2.81;100.00
63607;BME280;71992;52.478;-1.918;2024-03-02T01:54:54;97158.03;;;2.81;100.00
63607;BME280;71992;52.478;-1.918;2024-03-02T01:57:27;97153.09;;;2.77;100.00
63607;BME280;71992;52.478;-1.918;2024-03-02T02:00:19;97160.91;;;2.78;100.00
63607;BME280;71992;52.478;-1.918;2024-03-02T02:02:51;97157.25;;;2.68;100.00
63607;BME280;71992;52.478;-1.918;2024-03-02T02:05:20;97159.06;;;2.67;100.00
63607;BME280;71992;52.478;-1.918;2024-03-02T02:07:50;97156.09;;;2.72;100.00
63607;BME280;71992;52.478;-1.918;2024-03-02T02:10:42;97158.38;;;2.77;100.00
63607;BME280;71992;52.478;-1.918;2024-03-02T02:13:14;97150.72;;;2.74;100.00
63607;BME280;71992;52.478;-1.918;2024-03-02T02:16:07;97143.19;;;2.80;100.00
63607;BME280;71992;52.478;-1.918;2024-03-02T02:18:57;97151.78;;;2.71;100.00
63607;BME280;71992;52.478;-1.918;2024-03-02T02:21:29;97141.44;;;2.57;100.00
63607;BME280;71992;52.478;-1.918;2024-03-02T02:24:18;97141.63;;;2.42;100.00
63607;BME280;71992;52.478;-1.918;2024-03-02T02:27:10;97133.81;;;2.29;100.00
63607;BME280;71992;52.478;-1.918;2024-03-02T02:30:01;97137.38;;;2.28;100.00
63607;BME280;71992;52.478;-1.918;2024-03-02T02:32:51;97132.13;;;2.28;100.00
63607;BME280;71992;52.478;-1.918;2024-03-02T02:35:21;97126.75;;;2.30;100.00
63607;BME280;71992;52.478;-1.918;2024-03-02T02:38:13;97126.84;;;2.28;100.00
63607;BME280;71992;52.478;-1.918;2024-03-02T02:41:05;97128.41;;;2.31;100.00
63607;BME280;71992;52.478;-1.918;2024-03-02T02:43:34;97124.31;;;2.27;100.00
63607;BME280;71992;52.478;-1.918;2024-03-02T02:46:27;97129.44;;;2.17;100.00
63607;BME280;71992;52.478;-1.918;2024-03-02T02:48:57;97128.31;;;2.08;100.00
63607;BME280;71992;52.478;-1.918;2024-03-02T02:51:27;97119.34;;;2.11;100.00
63607;BME280;71992;52.478;-1.918;2024-03-02T02:54:20;97125.34;;;2.13;100.00
63607;BME280;71992;52.478;-1.918;2024-03-02T02:57:12;97122.94;;;2.10;100.00
63607;BME280;71992;52.478;-1.918;2024-03-02T02:59:44;97125.34;;;2.13;100.00
63607;BME280;71992;52.478;-1.918;2024-03-02T03:02:37;97126.69;;;2.19;100.00
63607;BME280;71992;52.478;-1.918;2024-03-02T03:05:09;97123.00;;;2.21;100.00
63607;BME280;71992;52.478;-1.918;2024-03-02T03:08:01;97127.44;;;2.21;100.00
63607;BME280;71992;52.478;-1.918;2024-03-02T03:10:35;97129.81;;;2.24;100.00
63607;BME280;71992;52.478;-1.918;2024-03-02T03:13:25;97124.56;;;2.24;100.00
63607;BME280;71992;52.478;-1.918;2024-03-02T03:15:55;97119.69;;;2.30;100.00
63607;BME280;71992;52.478;-1.918;2024-03-02T03:18:47;97104.47;;;2.23;100.00
63607;BME280;71992;52.478;-1.918;2024-03-02T03:21:20;97109.13;;;2.30;100.00
63607;BME280;71992;52.478;-1.918;2024-03-02T03:24:13;97109.25;;;2.29;100.00
63607;BME280;71992;52.478;-1.918;2024-03-02T03:27:05;97106.16;;;2.35;100.00
63607;BME280;71992;52.478;-1.918;2024-03-02T03:29:36;97102.22;;;2.29;100.00
63607;BME280;71992;52.478;-1.918;2024-03-02T03:32:09;97107.81;;;2.25;100.00
63607;BME280;71992;52.478;-1.918;2024-03-02T03:34:41;97093.19;;;2.21;100.00
63607;BME280;71992;52.478;-1.918;2024-03-02T03:37:12;97083.50;;;2.21;100.00
63607;BME280;71992;52.478;-1.918;2024-03-02T03:40:03;97087.44;;;2.27;100.00
63607;BME280;71992;52.478;-1.918;2024-03-02T03:42:59;97083.63;;;2.31;100.00
63607;BME280;71992;52.478;-1.918;2024-03-02T03:45:48;97084.84;;;2.38;100.00
63607;BME280;71992;52.478;-1.918;2024-03-02T03:48:38;97088.22;;;2.40;100.00
63607;BME280;71992;52.478;-1.918;2024-03-02T03:51:28;97082.13;;;2.40;100.00
63607;BME280;71992;52.478;-1.918;2024-03-02T03:54:17;97085.47;;;2.42;100.00
63607;BME280;71992;52.478;-1.918;2024-03-02T03:57:07;97084.66;;;2.41;100.00
63607;BME280;71992;52.478;-1.918;2024-03-02T04:00:02;97084.41;;;2.44;100.00
63607;BME280;71992;52.478;-1.918;2024-03-02T04:02:59;97076.97;;;2.38;100.00
63607;BME280;71992;52.478;-1.918;2024-03-02T04:05:29;97084.75;;;2.40;100.00
63607;BME280;71992;52.478;-1.918;2024-03-02T04:08:21;97083.81;;;2.41;100.00
63607;BME280;71992;52.478;-1.918;2024-03-02T04:11:16;97082.56;;;2.34;100.00
63607;BME280;71992;52.478;-1.918;2024-03-02T04:14:10;97084.13;;;2.36;100.00
63607;BME280;71992;52.478;-1.918;2024-03-02T04:17:04;97078.16;;;2.34;100.00
63607;BME280;71992;52.478;-1.918;2024-03-02T04:19:54;97082.34;;;2.37;100.00
63607;BME280;71992;52.478;-1.918;2024-03-02T04:22:45;97069.53;;;2.32;100.00
63607;BME280;71992;52.478;-1.918;2024-03-02T04:25:15;97071.94;;;2.35;100.00
63607;BME280;71992;52.478;-1.918;2024-03-02T04:28:06;97074.47;;;2.37;100.00
63607;BME280;71992;52.478;-1.918;2024-03-02T04:31:08;97075.63;;;2.33;100.00
63607;BME280;71992;52.478;-1.918;2024-03-02T04:33:40;97074.66;;;2.34;100.00
63607;BME280;71992;52.478;-1.918;2024-03-02T04:36:11;97079.44;;;2.28;100.00
63607;BME280;71992;52.478;-1.918;2024-03-02T04:39:00;97077.44;;;2.32;100.00
63607;BME280;71992;52.478;-1.918;2024-03-02T04:41:51;97076.22;;;2.25;100.00
63607;BME280;71992;52.478;-1.918;2024-03-02T04:44:24;97072.28;;;2.30;100.00
63607;BME280;71992;52.478;-1.918;2024-03-02T04:46:54;97068.91;;;2.28;100.00
63607;BME280;71992;52.478;-1.918;2024-03-02T04:49:30;97061.50;;;2.34;100.00
63607;BME280;71992;52.478;-1.918;2024-03-02T04:51:59;97067.84;;;2.31;100.00
63607;BME280;71992;52.478;-1.918;2024-03-02T04:54:51;97071.19;;;2.33;100.00
63607;BME280;71992;52.478;-1.918;2024-03-02T04:57:46;97069.66;;;2.30;100.00
63607;BME280;71992;52.478;-1.918;2024-03-02T05:00:22;97075.53;;;2.34;100.00
63607;BME280;71992;52.478;-1.918;2024-03-02T05:03:04;97070.13;;;2.36;100.00
63607;BME280;71992;52.478;-1.918;2024-03-02T05:05:37;97069.19;;;2.37;100.00
63607;BME280;71992;52.478;-1.918;2024-03-02T05:08:07;97072.28;;;2.30;100.00
63607;BME280;71992;52.478;-1.918;2024-03-02T05:10:43;97074.19;;;2.28;100.00
63607;BME280;71992;52.478;-1.918;2024-03-02T05:13:34;97068.91;;;2.28;100.00
63607;BME280;71992;52.478;-1.918;2024-03-02T05:16:25;97071.53;;;2.28;100.00
63607;BME280;71992;52.478;-1.918;2024-03-02T05:18:54;97067.38;;;2.37;100.00
63607;BME280;71992;52.478;-1.918;2024-03-02T05:21:27;97066.94;;;2.43;100.00
63607;BME280;71992;52.478;-1.918;2024-03-02T05:24:16;97076.78;;;2.53;100.00
63607;BME280;71992;52.478;-1.918;2024-03-02T05:27:08;97066.72;;;2.58;100.00
63607;BME280;71992;52.478;-1.918;2024-03-02T05:29:44;97065.53;;;2.62;100.00
63607;BME280;71992;52.478;-1.918;2024-03-02T05:32:13;97058.91;;;2.56;100.00
63607;BME280;71992;52.478;-1.918;2024-03-02T05:34:46;97074.25;;;2.51;100.00
63607;BME280;71992;52.478;-1.918;2024-03-02T05:37:22;97069.22;;;2.48;100.00
63607;BME280;71992;52.478;-1.918;2024-03-02T05:40:12;97071.69;;;2.38;100.00
63607;BME280;71992;52.478;-1.918;2024-03-02T05:42:42;97052.66;;;2.35;100.00
63607;BME280;71992;52.478;-1.918;2024-03-02T05:45:33;97071.44;;;2.30;100.00
63607;BME280;71992;52.478;-1.918;2024-03-02T05:48:22;97064.56;;;2.16;100.00
63607;BME280;71992;52.478;-1.918;2024-03-02T05:51:14;97068.34;;;2.01;100.00
63607;BME280;71992;52.478;-1.918;2024-03-02T05:54:08;97068.78;;;1.95;100.00
63607;BME280;71992;52.478;-1.918;2024-03-02T05:56:40;97068.78;;;1.95;100.00
63607;BME280;71992;52.478;-1.918;2024-03-02T05:59:14;97067.31;;;1.91;100.00
63607;BME280;71992;52.478;-1.918;2024-03-02T06:02:04;97060.09;;;1.81;100.00
63607;BME280;71992;52.478;-1.918;2024-03-02T06:04:55;97064.53;;;1.81;100.00
63607;BME280;71992;52.478;-1.918;2024-03-02T06:07:45;97059.84;;;1.73;100.00
63607;BME280;71992;52.478;-1.918;2024-03-02T06:10:38;97054.28;;;1.65;100.00
63607;BME280;71992;52.478;-1.918;2024-03-02T06:13:27;97048.44;;;1.61;100.00
63607;BME280;71992;52.478;-1.918;2024-03-02T06:16:17;97044.84;;;1.62;100.00
63607;BME280;71992;52.478;-1.918;2024-03-02T06:19:06;97039.34;;;1.65;100.00
63607;BME280;71992;52.478;-1.918;2024-03-02T06:21:43;97027.00;;;1.55;100.00
63607;BME280;71992;52.478;-1.918;2024-03-02T06:24:12;97029.63;;;1.55;100.00
63607;BME280;71992;52.478;-1.918;2024-03-02T06:27:08;97030.56;;;1.54;100.00
63607;BME280;71992;52.478;-1.918;2024-03-02T06:29:58;97027.91;;;1.54;100.00
63607;BME280;71992;52.478;-1.918;2024-03-02T06:32:49;97021.84;;;1.53;100.00
63607;BME280;71992;52.478;-1.918;2024-03-02T06:35:39;97019.09;;;1.55;100.00
63607;BME280;71992;52.478;-1.918;2024-03-02T06:38:08;97034.88;;;1.55;100.00
63607;BME280;71992;52.478;-1.918;2024-03-02T06:40:58;97033.09;;;1.55;100.00
63607;BME280;71992;52.478;-1.918;2024-03-02T06:43:30;97027.25;;;1.63;100.00
63607;BME280;71992;52.478;-1.918;2024-03-02T06:46:20;97028.31;;;1.60;100.00
63607;BME280;71992;52.478;-1.918;2024-03-02T06:49:10;97022.97;;;1.62;100.00
63607;BME280;71992;52.478;-1.918;2024-03-02T06:51:39;97031.78;;;1.61;100.00
63607;BME280;71992;52.478;-1.918;2024-03-02T06:54:29;97025.44;;;1.63;100.00
63607;BME280;71992;52.478;-1.918;2024-03-02T06:57:21;97032.19;;;1.67;100.00
63607;BME280;71992;52.478;-1.918;2024-03-02T06:59:54;97029.03;;;1.62;100.00
63607;BME280;71992;52.478;-1.918;2024-03-02T07:02:26;97022.22;;;1.60;100.00
63607;BME280;71992;52.478;-1.918;2024-03-02T07:04:58;97022.22;;;1.60;100.00
63607;BME280;71992;52.478;-1.918;2024-03-02T07:07:31;97017.31;;;1.55;100.00
63607;BME280;71992;52.478;-1.918;2024-03-02T07:10:01;97008.44;;;1.56;100.00
63607;BME280;71992;52.478;-1.918;2024-03-02T07:12:50;97018.13;;;1.56;100.00
63607;BME280;71992;52.478;-1.918;2024-03-02T07:15:22;97022.13;;;1.61;100.00
63607;BME280;71992;52.478;-1.918;2024-03-02T07:18:12;97016.00;;;1.61;100.00
63607;BME280;71992;52.478;-1.918;2024-03-02T07:21:08;97010.97;;;1.58;100.00
63607;BME280;71992;52.478;-1.918;2024-03-02T07:24:00;97012.38;;;1.51;100.00
63607;BME280;71992;52.478;-1.918;2024-03-02T07:26:51;97007.22;;;1.49;100.00
63607;BME280;71992;52.478;-1.918;2024-03-02T07:29:45;97003.25;;;1.43;100.00
63607;BME280;71992;52.478;-1.918;2024-03-02T07:32:17;96999.06;;;1.41;100.00
63607;BME280;71992;52.478;-1.918;2024-03-02T07:34:49;96999.66;;;1.44;100.00
63607;BME280;71992;52.478;-1.918;2024-03-02T07:37:41;97002.06;;;1.48;100.00
63607;BME280;71992;52.478;-1.918;2024-03-02T07:40:12;97002.19;;;1.46;100.00
63607;BME280;71992;52.478;-1.918;2024-03-02T07:43:03;96992.50;;;1.46;100.00
63607;BME280;71992;52.478;-1.918;2024-03-02T07:45:36;96992.50;;;1.46;100.00
63607;BME280;71992;52.478;-1.918;2024-03-02T07:48:28;97003.03;;;1.46;100.00
63607;BME280;71992;52.478;-1.918;2024-03-02T07:51:17;96993.97;;;1.51;100.00
63607;BME280;71992;52.478;-1.918;2024-03-02T07:54:07;97004.50;;;1.51;100.00
63607;BME280;71992;52.478;-1.918;2024-03-02T07:56:57;97004.97;;;1.56;100.00
63607;BME280;71992;52.478;-1.918;2024-03-02T07:59:28;97007.38;;;1.59;100.00
63607;BME280;71992;52.478;-1.918;2024-03-02T08:01:58;97005.38;;;1.62;100.00
63607;BME280;71992;52.478;-1.918;2024-03-02T08:04:50;96997.16;;;1.67;100.00
63607;BME280;71992;52.478;-1.918;2024-03-02T08:07:21;97000.41;;;1.71;100.00
63607;BME280;71992;52.478;-1.918;2024-03-02T08:10:11;96995.72;;;1.74;100.00
63607;BME280;71992;52.478;-1.918;2024-03-02T08:12:40;97004.13;;;1.79;100.00
63607;BME280;71992;52.478;-1.918;2024-03-02T08:15:30;96998.03;;;1.79;100.00
63607;BME280;71992;52.478;-1.918;2024-03-02T08:18:19;96992.56;;;1.82;100.00
63607;BME280;71992;52.478;-1.918;2024-03-02T08:20:54;96987.88;;;1.85;100.00
63607;BME280;71992;52.478;-1.918;2024-03-02T08:23:44;96989.69;;;1.85;100.00
63607;BME280;71992;52.478;-1.918;2024-03-02T08:26:34;96997.22;;;1.90;100.00
63607;BME280;71992;52.478;-1.918;2024-03-02T08:29:05;96986.72;;;1.90;100.00
63607;BME280;71992;52.478;-1.918;2024-03-02T08:31:36;96995.00;;;1.96;100.00
63607;BME280;71992;52.478;-1.918;2024-03-02T08:34:27;97003.47;;;2.00;100.00
63607;BME280;71992;52.478;-1.918;2024-03-02T08:37:20;96994.41;;;2.04;100.00
63607;BME280;71992;52.478;-1.918;2024-03-02T08:39:50;96991.31;;;2.10;100.00
63607;BME280;71992;52.478;-1.918;2024-03-02T08:42:39;96997.06;;;2.15;100.00
63607;BME280;71992;52.478;-1.918;2024-03-02T08:45:10;96989.69;;;2.20;100.00
63607;BME280;71992;52.478;-1.918;2024-03-02T08:47:39;96991.09;;;2.24;100.00
63607;BME280;71992;52.478;-1.918;2024-03-02T08:50:30;96980.84;;;2.33;100.00
63607;BME280;71992;52.478;-1.918;2024-03-02T08:53:02;96981.19;;;2.39;100.00
63607;BME280;71992;52.478;-1.918;2024-03-02T08:55:56;96973.44;;;2.49;100.00
63607;BME280;71992;52.478;-1.918;2024-03-02T08:58:49;96977.41;;;2.55;100.00
63607;BME280;71992;52.478;-1.918;2024-03-02T09:01:23;96974.41;;;2.59;100.00
63607;BME280;71992;52.478;-1.918;2024-03-02T09:03:55;96974.16;;;2.62;100.00
63607;BME280;71992;52.478;-1.918;2024-03-02T09:06:25;96981.59;;;2.68;100.00
63607;BME280;71992;52.478;-1.918;2024-03-02T09:08:57;96978.72;;;2.71;100.00
63607;BME280;71992;52.478;-1.918;2024-03-02T09:11:50;96981.81;;;2.77;100.00
63607;BME280;71992;52.478;-1.918;2024-03-02T09:14:21;96979.69;;;2.82;100.00
63607;BME280;71992;52.478;-1.918;2024-03-02T09:17:10;96994.16;;;2.87;100.00
63607;BME280;71992;52.478;-1.918;2024-03-02T09:19:59;96974.41;;;2.93;100.00
63607;BME280;71992;52.478;-1.918;2024-03-02T09:22:52;96981.06;;;2.97;100.00
63607;BME280;71992;52.478;-1.918;2024-03-02T09:25:31;96986.00;;;3.02;100.00
63607;BME280;71992;52.478;-1.918;2024-03-02T09:28:20;96976.06;;;3.05;100.00
63607;BME280;71992;52.478;-1.918;2024-03-02T09:30:49;96975.78;;;3.08;100.00
63607;BME280;71992;52.478;-1.918;2024-03-02T09:33:19;96979.16;;;3.10;100.00
63607;BME280;71992;52.478;-1.918;2024-03-02T09:35:52;96984.31;;;3.12;100.00
63607;BME280;71992;52.478;-1.918;2024-03-02T09:38:43;96973.50;;;3.15;100.00
63607;BME280;71992;52.478;-1.918;2024-03-02T09:41:37;96973.50;;;3.15;100.00
63607;BME280;71992;52.478;-1.918;2024-03-02T09:44:26;96977.59;;;3.19;100.00
63607;BME280;71992;52.478;-1.918;2024-03-02T09:47:19;96975.56;;;3.23;100.00
63607;BME280;71992;52.478;-1.918;2024-03-02T09:50:09;96971.19;;;3.33;100.00
63607;BME280;71992;52.478;-1.918;2024-03-02T09:53:00;96981.38;;;3.38;100.00
63607;BME280;71992;52.478;-1.918;2024-03-02T09:55:50;96968.78;;;3.41;100.00
63607;BME280;71992;52.478;-1.918;2024-03-02T09:58:22;96965.78;;;3.46;100.00
63607;BME280;71992;52.478;-1.918;2024-03-02T10:00:52;96972.50;;;3.50;100.00
63607;BME280;71992;52.478;-1.918;2024-03-02T10:03:23;96973.44;;;3.49;100.00
63607;BME280;71992;52.478;-1.918;2024-03-02T10:05:56;96964.69;;;3.48;100.00
63607;BME280;71992;52.478;-1.918;2024-03-02T10:08:45;96978.72;;;3.49;100.00
63607;BME280;71992;52.478;-1.918;2024-03-02T10:11:35;96973.16;;;3.52;100.00
63607;BME280;71992;52.478;-1.918;2024-03-02T10:14:28;96971.72;;;3.59;100.00
63607;BME280;71992;52.478;-1.918;2024-03-02T10:17:17;96975.22;;;3.60;100.00
63607;BME280;71992;52.478;-1.918;2024-03-02T10:20:22;96976.88;;;3.61;100.00
63607;BME280;71992;52.478;-1.918;2024-03-02T10:22:52;96976.50;;;3.65;100.00
63607;BME280;71992;52.478;-1.918;2024-03-02T10:25:31;96986.56;;;3.71;100.00
63607;BME280;71992;52.478;-1.918;2024-03-02T10:28:21;97000.13;;;3.67;100.00
63607;BME280;71992;52.478;-1.918;2024-03-02T10:31:15;97010.41;;;3.70;100.00
63607;BME280;71992;52.478;-1.918;2024-03-02T10:34:06;97010.78;;;3.65;100.00
63607;BME280;71992;52.478;-1.918;2024-03-02T10:36:41;97022.22;;;3.66;100.00
63607;BME280;71992;52.478;-1.918;2024-03-02T10:39:34;97031.91;;;3.65;100.00
63607;BME280;71992;52.478;-1.918;2024-03-02T10:42:06;97042.84;;;3.61;100.00
63607;BME280;71992;52.478;-1.918;2024-03-02T10:44:56;97040.38;;;3.48;100.00
63607;BME280;71992;52.478;-1.918;2024-03-02T10:47:31;97049.59;;;3.31;100.00
63607;BME280;71992;52.478;-1.918;2024-03-02T10:50:24;97060.41;;;3.17;100.00
63607;BME280;71992;52.478;-1.918;2024-03-02T10:53:14;97069.63;;;3.00;100.00
63607;BME280;71992;52.478;-1.918;2024-03-02T10:56:07;97069.03;;;2.85;100.00
63607;BME280;71992;52.478;-1.918;2024-03-02T10:59:16;97074.78;;;2.79;100.00
63607;BME280;71992;52.478;-1.918;2024-03-02T11:01:48;97087.81;;;2.69;100.00
63607;BME280;71992;52.478;-1.918;2024-03-02T11:04:40;97090.50;;;2.45;100.00
63607;BME280;71992;52.478;-1.918;2024-03-02T11:07:31;97089.53;;;2.35;100.00
63607;BME280;71992;52.478;-1.918;2024-03-02T11:10:23;97083.25;;;2.24;100.00
63607;BME280;71992;52.478;-1.918;2024-03-02T11:12:57;97082.78;;;2.19;100.00
63607;BME280;71992;52.478;-1.918;2024-03-02T11:15:52;97082.47;;;2.11;100.00
63607;BME280;71992;52.478;-1.918;2024-03-02T11:18:44;97094.72;;;2.12;100.00
63607;BME280;71992;52.478;-1.918;2024-03-02T11:21:18;97095.88;;;2.08;100.00
63607;BME280;71992;52.478;-1.918;2024-03-02T11:24:32;97104.63;;;2.08;100.00
63607;BME280;71992;52.478;-1.918;2024-03-02T11:27:03;97107.25;;;2.08;100.00
63607;BME280;71992;52.478;-1.918;2024-03-02T11:30:08;97100.91;;;2.11;100.00
63607;BME280;71992;52.478;-1.918;2024-03-02T11:32:39;97106.69;;;2.16;100.00
63607;BME280;71992;52.478;-1.918;2024-03-02T11:35:09;97103.00;;;2.19;100.00
63607;BME280;71992;52.478;-1.918;2024-03-02T11:38:02;97112.56;;;2.20;100.00
63607;BME280;71992;52.478;-1.918;2024-03-02T11:40:33;97104.56;;;2.21;100.00
63607;BME280;71992;52.478;-1.918;2024-03-02T11:43:05;97112.13;;;2.26;100.00
63607;BME280;71992;52.478;-1.918;2024-03-02T11:45:36;97114.03;;;2.24;100.00
63607;BME280;71992;52.478;-1.918;2024-03-02T11:48:07;97104.06;;;2.16;100.00
63607;BME280;71992;52.478;-1.918;2024-03-02T11:50:40;97104.16;;;2.15;100.00
63607;BME280;71992;52.478;-1.918;2024-03-02T11:53:14;97116.16;;;2.19;100.00
63607;BME280;71992;52.478;-1.918;2024-03-02T11:56:06;97117.72;;;2.21;100.00
63607;BME280;71992;52.478;-1.918;2024-03-02T11:58:59;97126.06;;;2.15;100.00
63607;BME280;71992;52.478;-1.918;2024-03-02T12:01:52;97122.94;;;2.10;100.00
63607;BME280;71992;52.478;-1.918;2024-03-02T12:04:42;97134.94;;;2.14;100.00
63607;BME280;71992;52.478;-1.918;2024-03-02T12:07:12;97126.78;;;2.17;100.00
63607;BME280;71992;52.478;-1.918;2024-03-02T12:10:11;97124.41;;;2.14;100.00
63607;BME280;71992;52.478;-1.918;2024-03-02T12:13:05;97125.34;;;2.13;100.00
63607;BME280;71992;52.478;-1.918;2024-03-02T12:15:39;97130.22;;;2.06;100.00
63607;BME280;71992;52.478;-1.918;2024-03-02T12:18:10;97137.59;;;2.01;100.00
63607;BME280;71992;52.478;-1.918;2024-03-02T12:20:40;97138.34;;;2.03;100.00
63607;BME280;71992;52.478;-1.918;2024-03-02T12:23:30;97128.22;;;2.10;100.00
63607;BME280;71992;52.478;-1.918;2024-03-02T12:26:03;97132.75;;;2.08;100.00
63607;BME280;71992;52.478;-1.918;2024-03-02T12:28:57;97134.31;;;2.11;100.00
63607;BME280;71992;52.478;-1.918;2024-03-02T12:31:48;97131.00;;;2.20;100.00
63607;BME280;71992;52.478;-1.918;2024-03-02T12:34:40;97130.44;;;2.27;100.00
63607;BME280;71992;52.478;-1.918;2024-03-02T12:37:13;97137.13;;;2.32;100.00
63607;BME280;71992;52.478;-1.918;2024-03-02T12:39:44;97136.94;;;2.35;100.00
63607;BME280;71992;52.478;-1.918;2024-03-02T12:42:37;97138.41;;;2.39;100.00
63607;BME280;71992;52.478;-1.918;2024-03-02T12:45:26;97135.53;;;2.42;100.00
63607;BME280;71992;52.478;-1.918;2024-03-02T12:48:18;97139.63;;;2.46;100.00
63607;BME280;71992;52.478;-1.918;2024-03-02T12:51:09;97134.22;;;2.47;100.00
63607;BME280;71992;52.478;-1.918;2024-03-02T12:54:01;97129.91;;;2.46;100.00
63607;BME280;71992;52.478;-1.918;2024-03-02T12:56:52;97127.75;;;2.51;100.00
63607;BME280;71992;52.478;-1.918;2024-03-02T12:59:45;97140.72;;;2.55;100.00
63607;BME280;71992;52.478;-1.918;2024-03-02T13:02:36;97137.97;;;2.56;100.00
63607;BME280;71992;52.478;-1.918;2024-03-02T13:05:30;97143.13;;;2.58;100.00
63607;BME280;71992;52.478;-1.918;2024-03-02T13:08:06;97145.50;;;2.61;100.00
63607;BME280;71992;52.478;-1.918;2024-03-02T13:10:57;97142.66;;;2.64;100.00
63607;BME280;71992;52.478;-1.918;2024-03-02T13:13:50;97122.91;;;2.69;100.00
63607;BME280;71992;52.478;-1.918;2024-03-02T13:16:24;97138.38;;;2.74;100.00
63607;BME280;71992;52.478;-1.918;2024-03-02T13:18:53;97136.72;;;2.73;100.00
63607;BME280;71992;52.478;-1.918;2024-03-02T13:21:46;97142.19;;;2.70;100.00
63607;BME280;71992;52.478;-1.918;2024-03-02T13:24:36;97140.16;;;2.74;100.00
63607;BME280;71992;52.478;-1.918;2024-03-02T13:27:28;97140.78;;;2.77;100.00
63607;BME280;71992;52.478;-1.918;2024-03-02T13:30:20;97138.03;;;2.79;100.00
63607;BME280;71992;52.478;-1.918;2024-03-02T13:33:12;97139.97;;;2.88;100.00
63607;BME280;71992;52.478;-1.918;2024-03-02T13:35:50;97134.56;;;2.89;100.00
63607;BME280;71992;52.478;-1.918;2024-03-02T13:38:22;97137.47;;;2.86;100.00
63607;BME280;71992;52.478;-1.918;2024-03-02T13:41:14;97139.97;;;2.88;100.00
63607;BME280;71992;52.478;-1.918;2024-03-02T13:44:04;97150.63;;;2.86;100.00
63607;BME280;71992;52.478;-1.918;2024-03-02T13:46:54;97133.72;;;2.78;100.00
63607;BME280;71992;52.478;-1.918;2024-03-02T13:49:47;97135.25;;;2.69;100.00
63607;BME280;71992;52.478;-1.918;2024-03-02T13:52:36;97142.06;;;2.71;100.00
63607;BME280;71992;52.478;-1.918;2024-03-02T13:55:07;97147.97;;;2.75;100.00
63607;BME280;71992;52.478;-1.918;2024-03-02T13:57:56;97136.94;;;2.81;100.00
63607;BME280;71992;52.478;-1.918;2024-03-02T14:00:43;97142.09;;;2.83;100.00
63607;BME280;71992;52.478;-1.918;2024-03-02T14:03:33;97142.94;;;2.83;100.00
63607;BME280;71992;52.478;-1.918;2024-03-02T14:06:07;97139.59;;;2.81;100.00
63607;BME280;71992;52.478;-1.918;2024-03-02T14:08:56;97132.88;;;2.77;100.00
63607;BME280;71992;52.478;-1.918;2024-03-02T14:11:46;97137.19;;;2.78;100.00
63607;BME280;71992;52.478;-1.918;2024-03-02T14:14:35;97130.84;;;2.81;100.00
63607;BME280;71992;52.478;-1.918;2024-03-02T14:17:25;97128.81;;;2.84;100.00